createdAt,value
2023-12-23T00:03:51.620Z,23.11
2023-12-23T00:13:54.854Z,23.11
2023-12-23T00:23:58.066Z,23.12
2023-12-23T00:34:01.270Z,23.12
2023-12-23T00:44:04.520Z,23.12
2023-12-23T00:54:07.701Z,23.12
2023-12-23T01:04:10.901Z,23.12
2023-12-23T01:14:14.137Z,23.14
2023-12-23T01:24:17.317Z,23.11
2023-12-23T01:34:20.470Z,23.11
2023-12-23T01:44:23.716Z,23.11
2023-12-23T01:54:26.905Z,23.08
2023-12-23T02:04:30.125Z,23.11
2023-12-23T02:14:33.377Z,23.11
2023-12-23T02:24:36.555Z,23.09
2023-12-23T02:34:39.746Z,23.11
2023-12-23T02:44:42.993Z,23.12
2023-12-23T02:54:46.157Z,23.09
2023-12-23T03:04:49.357Z,23.09
2023-12-23T03:14:52.524Z,23.11
2023-12-23T03:24:55.723Z,23.08
2023-12-23T03:34:58.990Z,23.09
2023-12-23T03:45:02.242Z,23.08
2023-12-23T03:55:05.395Z,23.09
2023-12-23T04:05:08.671Z,23.08
2023-12-23T04:15:11.864Z,23.09
2023-12-23T04:25:15.068Z,23.07
2023-12-23T04:35:18.464Z,23.08
2023-12-23T04:45:21.708Z,23.08
2023-12-23T04:55:24.875Z,23.05
2023-12-23T05:05:28.133Z,23.07
2023-12-23T05:15:31.321Z,23.05
2023-12-23T05:25:34.533Z,23.07
2023-12-23T05:35:37.678Z,23.07
2023-12-23T05:45:40.873Z,23.05
2023-12-23T05:55:44.163Z,23.07
2023-12-23T06:05:47.382Z,23.05
2023-12-23T06:15:50.546Z,23.02
2023-12-23T06:25:53.788Z,23.02
2023-12-23T06:35:56.956Z,23.01
2023-12-23T06:46:00.192Z,23.04
2023-12-23T06:56:03.375Z,23.04
2023-12-23T07:06:06.621Z,23.02
2023-12-23T07:16:09.768Z,23.01
2023-12-23T07:26:12.980Z,23.01
2023-12-23T07:36:16.172Z,22.99
2023-12-23T07:46:19.396Z,22.99
2023-12-23T07:56:22.644Z,22.97
2023-12-23T08:06:25.975Z,22.97
2023-12-23T08:16:29.211Z,22.97
2023-12-23T08:26:32.435Z,22.97
2023-12-23T08:36:35.628Z,22.97
2023-12-23T08:46:38.813Z,22.97
2023-12-23T08:56:41.957Z,22.97
2023-12-23T09:06:45.147Z,22.96
2023-12-23T09:16:48.540Z,22.94
2023-12-23T09:26:51.784Z,22.94
2023-12-23T09:36:54.970Z,22.94
2023-12-23T09:46:58.235Z,22.94
2023-12-23T09:57:01.397Z,22.93
2023-12-23T10:07:04.630Z,22.94
2023-12-23T10:17:07.869Z,22.93
2023-12-23T10:27:11.090Z,22.94
2023-12-23T10:37:14.281Z,22.90
2023-12-23T10:47:17.515Z,22.90
2023-12-23T10:57:20.688Z,22.92
2023-12-23T11:07:23.957Z,22.93
2023-12-23T11:17:27.410Z,22.92
2023-12-23T11:27:30.795Z,22.90
2023-12-23T11:37:33.949Z,22.90
2023-12-23T11:47:37.254Z,22.92
2023-12-23T11:57:40.454Z,22.90
2023-12-23T12:07:43.676Z,22.90
2023-12-23T12:17:47.109Z,22.90
2023-12-23T12:27:50.360Z,22.90
2023-12-23T12:37:53.521Z,22.87
2023-12-23T12:47:56.822Z,22.90
2023-12-23T12:58:00.025Z,22.89
2023-12-23T13:08:03.283Z,22.90
2023-12-23T13:18:06.555Z,22.89
2023-12-23T13:28:09.796Z,22.87
2023-12-23T13:38:12.967Z,22.86
2023-12-23T13:48:16.226Z,22.89
2023-12-23T13:58:19.438Z,22.89
2023-12-23T14:08:22.801Z,22.87
2023-12-23T14:18:26.223Z,22.87
2023-12-23T14:28:29.493Z,22.89
2023-12-23T14:38:32.746Z,22.87
2023-12-23T14:48:35.997Z,22.86
2023-12-23T14:58:39.190Z,22.86
2023-12-23T15:08:42.380Z,22.86
2023-12-23T15:18:45.655Z,22.86
2023-12-23T15:28:49.000Z,22.86
2023-12-23T15:38:52.168Z,22.86
2023-12-23T15:48:55.447Z,22.86
2023-12-23T15:58:58.730Z,22.84
2023-12-23T16:09:02.159Z,22.84
2023-12-23T16:19:05.393Z,22.84
2023-12-23T16:29:08.716Z,22.86
2023-12-23T16:39:11.898Z,22.83
2023-12-23T16:49:15.102Z,22.84
2023-12-23T16:59:18.300Z,22.86
2023-12-23T17:09:21.484Z,22.86
2023-12-23T17:19:24.823Z,22.83
2023-12-23T17:29:28.195Z,22.83
2023-12-23T17:39:31.375Z,22.83
2023-12-23T17:49:34.603Z,22.84
2023-12-23T17:59:37.806Z,22.83
2023-12-23T18:09:40.999Z,22.84
2023-12-23T18:19:44.146Z,22.83
2023-12-23T18:29:47.385Z,22.83
2023-12-23T18:39:50.563Z,22.84
2023-12-23T18:49:53.802Z,22.83
2023-12-23T18:59:57.022Z,22.83
2023-12-23T19:10:00.289Z,22.83
2023-12-23T19:20:03.514Z,22.83
2023-12-23T19:30:06.756Z,22.82
2023-12-23T19:40:11.003Z,22.82
2023-12-23T19:50:14.559Z,22.83
2023-12-23T20:00:17.734Z,22.82
2023-12-23T20:10:20.915Z,22.80
2023-12-23T20:20:24.119Z,22.82
2023-12-23T20:30:27.365Z,22.82
2023-12-23T20:40:30.700Z,22.82
2023-12-23T20:50:33.935Z,22.82
2023-12-23T21:00:37.212Z,22.80
2023-12-23T21:10:40.429Z,22.80
2023-12-23T21:20:43.624Z,22.80
2023-12-23T21:30:46.887Z,22.82
2023-12-23T21:40:50.054Z,22.80
2023-12-23T21:50:53.298Z,22.78
2023-12-23T22:00:57.497Z,22.80
2023-12-23T22:11:00.806Z,22.80
2023-12-23T22:21:04.019Z,22.80
2023-12-23T22:31:07.291Z,22.80
2023-12-23T22:41:10.527Z,22.78
2023-12-23T22:51:13.790Z,22.77
2023-12-23T23:01:17.195Z,22.78
2023-12-23T23:11:20.466Z,22.78
2023-12-23T23:21:25.754Z,22.78
2023-12-23T23:31:26.758Z,22.77
2023-12-23T23:41:30.019Z,22.77
2023-12-23T23:51:33.373Z,22.77
